createdAt,value
2023-05-08T00:00:40.058Z,79.60
2023-05-08T00:03:18.001Z,80.00
2023-05-08T00:05:45.299Z,80.44
2023-05-08T00:08:12.842Z,81.27
2023-05-08T00:10:40.329Z,83.21
2023-05-08T00:13:08.012Z,83.01
2023-05-08T00:15:36.479Z,83.65
2023-05-08T00:18:04.179Z,84.35
2023-05-08T00:20:31.830Z,83.54
2023-05-08T00:22:59.482Z,83.95
2023-05-08T00:25:27.834Z,84.43
2023-05-08T00:27:56.266Z,84.89
2023-05-08T00:30:23.876Z,83.75
2023-05-08T00:32:51.959Z,84.97
2023-05-08T00:35:19.659Z,85.51
2023-05-08T00:37:47.351Z,87.75
2023-05-08T00:40:15.079Z,86.57
2023-05-08T00:42:43.295Z,84.56
2023-05-08T00:45:10.948Z,85.09
2023-05-08T00:47:39.097Z,84.00
2023-05-08T00:50:07.369Z,86.22
2023-05-08T00:52:34.998Z,87.73
2023-05-08T00:55:05.061Z,89.17
2023-05-08T00:57:37.963Z,87.43
2023-05-08T01:00:10.367Z,87.40
2023-05-08T01:02:39.897Z,87.43
2023-05-08T01:05:07.808Z,87.00
2023-05-08T01:07:35.584Z,87.49
2023-05-08T01:10:03.281Z,88.20
2023-05-08T01:13:06.551Z,89.51
2023-05-08T01:15:44.572Z,89.88
2023-05-08T01:18:19.723Z,89.54
2023-05-08T01:20:57.326Z,87.94
2023-05-08T01:23:37.374Z,88.49
2023-05-08T01:26:43.505Z,92.65
2023-05-08T01:29:41.212Z,93.96
2023-05-08T01:32:53.014Z,94.28
2023-05-08T01:35:24.193Z,95.20
2023-05-08T01:38:08.270Z,96.73
2023-05-08T01:40:54.974Z,98.48
2023-05-08T01:43:40.849Z,100.00
2023-05-08T01:46:14.986Z,99.35
2023-05-08T01:49:12.668Z,100.00
2023-05-08T01:51:52.841Z,100.00
2023-05-08T01:54:28.483Z,100.00
2023-05-08T01:56:59.489Z,100.00
2023-05-08T01:59:28.385Z,100.00
2023-05-08T02:01:58.543Z,100.00
2023-05-08T02:04:27.997Z,100.00
2023-05-08T02:06:57.021Z,100.00
2023-05-08T02:09:26.070Z,100.00
2023-05-08T02:11:55.632Z,100.00
2023-05-08T02:14:25.512Z,100.00
2023-05-08T02:16:56.308Z,100.00
2023-05-08T02:19:25.962Z,100.00
2023-05-08T02:22:00.404Z,100.00
2023-05-08T02:24:27.975Z,100.00
2023-05-08T02:26:57.339Z,100.00
2023-05-08T02:29:25.634Z,100.00
2023-05-08T02:31:55.034Z,100.00
2023-05-08T02:34:24.105Z,100.00
2023-05-08T02:36:54.175Z,100.00
2023-05-08T02:39:25.649Z,100.00
2023-05-08T02:41:53.786Z,100.00
2023-05-08T02:44:25.066Z,100.00
2023-05-08T02:47:16.256Z,100.00
2023-05-08T02:49:56.083Z,100.00
2023-05-08T02:52:31.276Z,100.00
2023-05-08T02:55:06.448Z,100.00
2023-05-08T02:57:51.138Z,100.00
2023-05-08T03:00:22.685Z,100.00
2023-05-08T03:02:57.766Z,100.00
2023-05-08T03:05:35.309Z,100.00
2023-05-08T03:08:16.639Z,100.00
2023-05-08T03:10:47.138Z,100.00
2023-05-08T03:13:16.492Z,100.00
2023-05-08T03:15:47.996Z,100.00
2023-05-08T03:18:19.996Z,100.00
2023-05-08T03:20:53.310Z,100.00
2023-05-08T03:23:25.040Z,100.00
2023-05-08T03:25:53.997Z,100.00
2023-05-08T03:28:23.535Z,100.00
2023-05-08T03:30:53.409Z,100.00
2023-05-08T03:33:23.556Z,100.00
2023-05-08T03:35:51.783Z,100.00
2023-05-08T03:38:19.630Z,100.00
2023-05-08T03:40:49.460Z,100.00
2023-05-08T03:43:19.248Z,100.00
2023-05-08T03:45:47.804Z,100.00
2023-05-08T03:48:18.360Z,100.00
2023-05-08T03:50:45.793Z,100.00
2023-05-08T03:53:14.868Z,100.00
2023-05-08T03:55:42.362Z,100.00
2023-05-08T03:58:55.327Z,100.00
2023-05-08T04:01:41.614Z,100.00
2023-05-08T04:04:18.014Z,100.00
2023-05-08T04:07:01.367Z,100.00
2023-05-08T04:10:03.265Z,100.00
2023-05-08T04:13:08.903Z,100.00
2023-05-08T04:15:48.962Z,100.00
2023-05-08T04:18:19.077Z,100.00
2023-05-08T04:20:50.933Z,100.00
2023-05-08T04:23:38.947Z,100.00
2023-05-08T04:26:08.019Z,100.00
2023-05-08T04:28:35.822Z,100.00
2023-05-08T04:31:05.119Z,100.00
2023-05-08T04:33:35.076Z,100.00
2023-05-08T04:36:03.598Z,100.00
2023-05-08T04:38:36.118Z,100.00
2023-05-08T04:41:04.434Z,100.00
2023-05-08T04:43:32.065Z,100.00
2023-05-08T04:46:00.115Z,100.00
2023-05-08T04:48:28.325Z,100.00
2023-05-08T04:50:56.625Z,100.00
2023-05-08T04:53:23.826Z,100.00
2023-05-08T04:55:51.405Z,100.00
2023-05-08T04:58:19.033Z,100.00
2023-05-08T05:00:46.761Z,100.00
2023-05-08T05:03:14.426Z,100.00
2023-05-08T05:05:42.398Z,100.00
2023-05-08T05:08:09.794Z,100.00
2023-05-08T05:10:40.152Z,100.00
2023-05-08T05:13:08.129Z,100.00
2023-05-08T05:15:37.056Z,100.00
2023-05-08T05:18:04.535Z,100.00
2023-05-08T05:20:32.792Z,100.00
2023-05-08T05:23:02.355Z,100.00
2023-05-08T05:25:29.942Z,100.00
2023-05-08T05:27:58.016Z,100.00
2023-05-08T05:30:26.081Z,100.00
2023-05-08T05:32:53.509Z,100.00
2023-05-08T05:35:23.516Z,100.00
2023-05-08T05:37:52.450Z,100.00
2023-05-08T05:40:21.648Z,100.00
2023-05-08T05:42:51.050Z,100.00
2023-05-08T05:45:19.735Z,100.00
2023-05-08T05:47:54.185Z,100.00
2023-05-08T05:50:24.256Z,100.00
2023-05-08T05:52:51.833Z,100.00
2023-05-08T05:55:20.913Z,100.00
2023-05-08T05:57:50.720Z,100.00
2023-05-08T06:00:19.768Z,100.00
2023-05-08T06:02:50.416Z,100.00
2023-05-08T06:05:23.220Z,100.00
2023-05-08T06:07:51.725Z,100.00
2023-05-08T06:10:20.242Z,100.00
2023-05-08T06:12:47.548Z,100.00
2023-05-08T06:15:16.063Z,100.00
2023-05-08T06:17:45.851Z,100.00
2023-05-08T06:20:14.262Z,100.00
2023-05-08T06:22:42.049Z,100.00
2023-05-08T06:25:11.227Z,100.00
2023-05-08T06:27:39.286Z,100.00
2023-05-08T06:30:08.709Z,100.00
2023-05-08T06:32:36.224Z,100.00
2023-05-08T06:35:04.000Z,100.00
2023-05-08T06:37:31.276Z,100.00
2023-05-08T06:40:10.759Z,100.00
2023-05-08T06:42:39.009Z,100.00
2023-05-08T06:45:08.838Z,100.00
2023-05-08T06:47:36.142Z,100.00
2023-05-08T06:50:04.516Z,100.00
2023-05-08T06:52:31.900Z,100.00
2023-05-08T06:54:59.469Z,100.00
2023-05-08T06:57:27.365Z,100.00
2023-05-08T06:59:55.001Z,100.00
2023-05-08T07:02:22.941Z,100.00
2023-05-08T07:04:51.214Z,100.00
2023-05-08T07:07:18.453Z,100.00
2023-05-08T07:09:46.053Z,100.00
2023-05-08T07:12:13.433Z,100.00
2023-05-08T07:14:41.120Z,100.00
2023-05-08T07:17:08.445Z,100.00
2023-05-08T07:19:36.825Z,100.00
2023-05-08T07:22:05.191Z,100.00
2023-05-08T07:24:33.785Z,100.00
2023-05-08T07:27:01.483Z,100.00
2023-05-08T07:29:29.149Z,100.00
2023-05-08T07:31:56.507Z,100.00
2023-05-08T07:34:24.197Z,100.00
2023-05-08T07:36:52.278Z,100.00
2023-05-08T07:39:19.782Z,100.00
2023-05-08T07:41:49.623Z,100.00
2023-05-08T07:44:17.638Z,100.00
2023-05-08T07:46:44.933Z,100.00
2023-05-08T07:49:12.558Z,100.00
2023-05-08T07:51:40.367Z,100.00
2023-05-08T07:54:08.134Z,100.00
2023-05-08T07:56:35.415Z,100.00
2023-05-08T07:59:03.068Z,100.00
2023-05-08T08:01:31.543Z,100.00
2023-05-08T08:03:59.476Z,100.00
2023-05-08T08:06:26.768Z,100.00
2023-05-08T08:08:54.277Z,100.00
2023-05-08T08:11:21.558Z,100.00
2023-05-08T08:13:49.082Z,100.00
2023-05-08T08:16:16.308Z,100.00
2023-05-08T08:18:43.879Z,100.00
2023-05-08T08:21:11.113Z,100.00
2023-05-08T08:23:38.809Z,100.00
2023-05-08T08:26:06.119Z,100.00
2023-05-08T08:28:33.772Z,100.00
2023-05-08T08:31:01.129Z,100.00
2023-05-08T08:33:29.732Z,100.00
2023-05-08T08:35:56.962Z,100.00
2023-05-08T08:38:24.472Z,100.00
2023-05-08T08:40:53.264Z,100.00
2023-05-08T08:43:21.104Z,100.00
2023-05-08T08:45:48.550Z,100.00
2023-05-08T08:48:17.019Z,100.00
2023-05-08T08:50:48.840Z,100.00
2023-05-08T08:53:26.445Z,100.00
2023-05-08T08:55:57.276Z,100.00
2023-05-08T08:58:38.648Z,100.00
2023-05-08T09:01:07.976Z,100.00
2023-05-08T09:03:37.926Z,100.00
2023-05-08T09:06:05.930Z,100.00
2023-05-08T09:08:34.076Z,100.00
2023-05-08T09:11:02.468Z,100.00
2023-05-08T09:13:30.400Z,100.00
2023-05-08T09:16:01.330Z,100.00
2023-05-08T09:18:28.938Z,100.00
2023-05-08T09:20:57.296Z,100.00
2023-05-08T09:23:26.404Z,100.00
2023-05-08T09:25:54.344Z,100.00
2023-05-08T09:28:24.189Z,100.00
2023-05-08T09:30:56.801Z,100.00
2023-05-08T09:33:27.190Z,100.00
2023-05-08T09:35:56.388Z,100.00
2023-05-08T09:38:42.229Z,100.00
2023-05-08T09:41:15.838Z,100.00
2023-05-08T09:43:46.562Z,100.00
2023-05-08T09:46:24.093Z,100.00
2023-05-08T09:48:57.296Z,100.00
2023-05-08T09:51:27.077Z,100.00
2023-05-08T09:53:57.259Z,100.00
2023-05-08T09:56:37.578Z,100.00
2023-05-08T09:59:22.009Z,100.00
2023-05-08T10:01:49.433Z,100.00
2023-05-08T10:04:17.179Z,100.00
2023-05-08T10:06:56.572Z,100.00
2023-05-08T10:09:24.362Z,100.00
2023-05-08T10:11:54.605Z,100.00
2023-05-08T10:14:25.930Z,100.00
2023-05-08T10:16:54.721Z,100.00
2023-05-08T10:19:24.322Z,100.00
2023-05-08T10:21:55.347Z,100.00
2023-05-08T10:24:28.225Z,100.00
2023-05-08T10:27:10.801Z,100.00
2023-05-08T10:29:45.495Z,100.00
2023-05-08T10:32:14.422Z,100.00
2023-05-08T10:34:44.283Z,100.00
2023-05-08T10:37:12.295Z,100.00
2023-05-08T10:39:42.593Z,100.00
2023-05-08T10:42:10.283Z,100.00
2023-05-08T10:44:38.949Z,100.00
2023-05-08T10:47:17.947Z,100.00
2023-05-08T10:49:48.524Z,100.00
2023-05-08T10:52:23.693Z,100.00
2023-05-08T10:54:54.419Z,100.00
2023-05-08T10:57:22.776Z,100.00
2023-05-08T10:59:50.386Z,100.00
2023-05-08T11:02:28.885Z,100.00
2023-05-08T11:05:17.863Z,100.00
2023-05-08T11:07:59.624Z,100.00
2023-05-08T11:10:37.325Z,100.00
2023-05-08T11:13:06.628Z,100.00
2023-05-08T11:15:41.952Z,100.00
2023-05-08T11:18:11.646Z,100.00
2023-05-08T11:20:41.553Z,100.00
2023-05-08T11:23:23.603Z,100.00
2023-05-08T11:26:05.285Z,100.00
2023-05-08T11:28:41.277Z,100.00
2023-05-08T11:31:09.278Z,100.00
2023-05-08T11:33:38.071Z,100.00
2023-05-08T11:36:15.499Z,100.00
2023-05-08T11:38:44.256Z,100.00
2023-05-08T11:41:25.685Z,100.00
2023-05-08T11:43:53.366Z,100.00
2023-05-08T11:46:21.956Z,100.00
2023-05-08T11:48:49.781Z,100.00
2023-05-08T11:51:20.184Z,100.00
2023-05-08T11:53:47.624Z,100.00
2023-05-08T11:56:15.381Z,100.00
2023-05-08T11:58:42.768Z,100.00
2023-05-08T12:01:10.599Z,100.00
2023-05-08T12:03:38.409Z,100.00
2023-05-08T12:06:06.445Z,100.00
2023-05-08T12:08:39.502Z,100.00
2023-05-08T12:11:07.236Z,100.00
2023-05-08T12:13:34.475Z,100.00
2023-05-08T12:16:02.281Z,100.00
2023-05-08T12:18:30.919Z,100.00
2023-05-08T12:21:00.831Z,100.00
2023-05-08T12:23:29.863Z,100.00
2023-05-08T12:26:01.520Z,100.00
2023-05-08T12:28:29.290Z,100.00
2023-05-08T12:30:57.058Z,100.00
2023-05-08T12:33:25.274Z,100.00
2023-05-08T12:35:52.979Z,100.00
2023-05-08T12:38:28.701Z,100.00
2023-05-08T12:40:56.848Z,100.00
2023-05-08T12:43:37.576Z,100.00
2023-05-08T12:46:05.473Z,100.00
2023-05-08T12:48:32.788Z,100.00
2023-05-08T12:51:04.878Z,100.00
2023-05-08T12:53:33.344Z,100.00
2023-05-08T12:56:03.705Z,100.00
2023-05-08T12:58:35.647Z,100.00
2023-05-08T13:01:13.754Z,100.00
2023-05-08T13:03:41.678Z,100.00
2023-05-08T13:06:21.164Z,100.00
2023-05-08T13:08:55.318Z,100.00
2023-05-08T13:11:33.426Z,100.00
2023-05-08T13:14:00.918Z,100.00
2023-05-08T13:16:28.728Z,100.00
2023-05-08T13:18:56.282Z,100.00
2023-05-08T13:21:25.176Z,100.00
2023-05-08T13:23:57.070Z,100.00
2023-05-08T13:26:25.855Z,100.00
2023-05-08T13:28:55.505Z,100.00
2023-05-08T13:31:24.435Z,100.00
2023-05-08T13:33:51.654Z,100.00
2023-05-08T13:36:20.737Z,100.00
2023-05-08T13:38:47.985Z,100.00
2023-05-08T13:41:15.454Z,100.00
2023-05-08T13:43:42.861Z,100.00
2023-05-08T13:46:10.444Z,100.00
2023-05-08T13:48:37.875Z,100.00
2023-05-08T13:51:05.809Z,100.00
2023-05-08T13:53:33.108Z,100.00
2023-05-08T13:56:01.362Z,100.00
2023-05-08T13:58:28.639Z,100.00
2023-05-08T14:00:56.237Z,100.00
2023-05-08T14:03:23.729Z,100.00
2023-05-08T14:05:51.467Z,100.00
2023-05-08T14:08:18.736Z,100.00
2023-05-08T14:10:47.337Z,100.00
2023-05-08T14:13:14.603Z,100.00
2023-05-08T14:15:42.737Z,100.00
2023-05-08T14:18:10.188Z,100.00
2023-05-08T14:20:38.031Z,100.00
2023-05-08T14:23:05.527Z,100.00
2023-05-08T14:25:33.232Z,100.00
2023-05-08T14:28:02.705Z,100.00
2023-05-08T14:30:30.400Z,100.00
2023-05-08T14:32:57.741Z,100.00
2023-05-08T14:35:25.418Z,100.00
2023-05-08T14:37:52.704Z,100.00
2023-05-08T14:40:22.073Z,100.00
2023-05-08T14:42:51.701Z,100.00
2023-05-08T14:45:19.289Z,100.00
2023-05-08T14:47:47.589Z,100.00
2023-05-08T14:50:15.220Z,100.00
2023-05-08T14:52:42.539Z,100.00
2023-05-08T14:55:10.655Z,100.00
2023-05-08T14:57:38.306Z,100.00
2023-05-08T15:00:08.819Z,100.00
2023-05-08T15:02:36.862Z,100.00
2023-05-08T15:05:10.850Z,100.00
2023-05-08T15:07:42.252Z,100.00
2023-05-08T15:10:10.352Z,100.00
2023-05-08T15:12:37.693Z,100.00
2023-05-08T15:15:05.842Z,100.00
2023-05-08T15:17:36.513Z,100.00
2023-05-08T15:20:09.829Z,100.00
2023-05-08T15:22:37.256Z,100.00
2023-05-08T15:25:05.823Z,100.00
2023-05-08T15:27:33.053Z,100.00
2023-05-08T15:30:00.754Z,100.00
2023-05-08T15:32:29.430Z,100.00
2023-05-08T15:34:57.141Z,100.00
2023-05-08T15:37:24.718Z,100.00
2023-05-08T15:39:52.261Z,100.00
2023-05-08T15:42:20.777Z,100.00
2023-05-08T15:47:19.623Z,100.00
2023-05-08T15:49:47.152Z,100.00
2023-05-08T15:52:18.686Z,100.00
2023-05-08T15:54:47.162Z,100.00
2023-05-08T15:57:15.322Z,100.00
2023-05-08T15:59:43.318Z,100.00
2023-05-08T16:02:11.245Z,100.00
2023-05-08T16:04:38.893Z,100.00
2023-05-08T16:07:06.097Z,100.00
2023-05-08T16:09:33.626Z,100.00
2023-05-08T16:12:01.229Z,100.00
2023-05-08T16:14:28.812Z,100.00
2023-05-08T16:16:56.024Z,100.00
2023-05-08T16:19:23.825Z,100.00
2023-05-08T16:21:51.041Z,100.00
2023-05-08T16:24:18.814Z,100.00
2023-05-08T16:26:46.089Z,100.00
2023-05-08T16:29:13.640Z,100.00
2023-05-08T16:31:41.026Z,100.00
2023-05-08T16:34:08.677Z,100.00
2023-05-08T16:36:36.211Z,100.00
2023-05-08T16:39:04.004Z,100.00
2023-05-08T16:41:32.025Z,100.00
2023-05-08T16:43:59.926Z,100.00
2023-05-08T16:46:30.409Z,100.00
2023-05-08T16:48:59.286Z,100.00
2023-05-08T16:51:26.670Z,100.00
2023-05-08T16:53:56.011Z,100.00
2023-05-08T16:56:24.780Z,100.00
2023-05-08T16:58:52.377Z,100.00
2023-05-08T17:01:19.849Z,100.00
2023-05-08T17:03:47.585Z,100.00
2023-05-08T17:06:14.822Z,100.00
2023-05-08T17:08:42.566Z,100.00
2023-05-08T17:11:09.796Z,100.00
2023-05-08T17:13:37.420Z,100.00
2023-05-08T17:16:04.855Z,100.00
2023-05-08T17:18:32.473Z,100.00
2023-05-08T17:21:00.040Z,100.00
2023-05-08T17:23:28.442Z,100.00
2023-05-08T17:25:57.805Z,100.00
2023-05-08T17:28:25.762Z,100.00
2023-05-08T17:30:53.164Z,100.00
2023-05-08T17:33:21.244Z,100.00
2023-05-08T17:35:48.504Z,100.00
2023-05-08T17:38:16.281Z,100.00
2023-05-08T17:40:43.701Z,100.00
2023-05-08T17:43:12.201Z,100.00
2023-05-08T17:45:39.757Z,100.00
2023-05-08T17:48:07.463Z,100.00
2023-05-08T17:50:35.356Z,100.00
2023-05-08T17:53:04.387Z,100.00
2023-05-08T17:55:31.867Z,100.00
2023-05-08T17:57:59.440Z,100.00
2023-05-08T18:00:26.927Z,100.00
2023-05-08T18:02:54.895Z,100.00
2023-05-08T18:05:22.292Z,100.00
2023-05-08T18:07:49.854Z,100.00
2023-05-08T18:10:17.170Z,100.00
2023-05-08T18:12:44.794Z,100.00
2023-05-08T18:15:12.279Z,100.00
2023-05-08T18:17:39.990Z,100.00
2023-05-08T18:20:09.939Z,100.00
2023-05-08T18:22:37.768Z,100.00
2023-05-08T18:25:05.356Z,100.00
2023-05-08T18:27:35.788Z,100.00
2023-05-08T18:30:04.487Z,100.00
2023-05-08T18:32:32.354Z,100.00
2023-05-08T18:34:59.652Z,100.00
2023-05-08T18:37:27.364Z,100.00
2023-05-08T18:39:54.604Z,100.00
2023-05-08T18:42:37.950Z,100.00
2023-05-08T18:45:08.667Z,100.00
2023-05-08T18:47:42.670Z,100.00
2023-05-08T18:50:16.822Z,100.00
2023-05-08T18:52:45.100Z,100.00
2023-05-08T18:55:12.845Z,100.00
2023-05-08T18:57:42.502Z,100.00
2023-05-08T19:00:10.860Z,100.00
2023-05-08T19:02:38.885Z,100.00
2023-05-08T19:05:06.840Z,100.00
2023-05-08T19:07:34.485Z,100.00
2023-05-08T19:10:01.742Z,100.00
2023-05-08T19:12:29.303Z,100.00
2023-05-08T19:14:56.658Z,100.00
2023-05-08T19:17:24.162Z,100.00
2023-05-08T19:19:54.112Z,100.00
2023-05-08T19:22:21.937Z,100.00
2023-05-08T19:24:49.474Z,100.00
2023-05-08T19:27:17.188Z,100.00
2023-05-08T19:29:44.448Z,100.00
2023-05-08T19:32:12.110Z,100.00
2023-05-08T19:34:39.617Z,100.00
2023-05-08T19:37:07.170Z,100.00
2023-05-08T19:39:34.406Z,100.00
2023-05-08T19:42:02.837Z,100.00
2023-05-08T19:44:32.676Z,100.00
2023-05-08T19:47:02.286Z,100.00
2023-05-08T19:49:31.162Z,100.00
2023-05-08T19:51:58.735Z,100.00
2023-05-08T19:54:26.023Z,100.00
2023-05-08T19:56:54.173Z,100.00
2023-05-08T19:59:21.484Z,100.00
2023-05-08T20:01:50.510Z,100.00
2023-05-08T20:04:18.024Z,100.00
2023-05-08T20:06:45.734Z,100.00
2023-05-08T20:09:13.007Z,100.00
2023-05-08T20:11:40.730Z,100.00
2023-05-08T20:14:07.922Z,100.00
2023-05-08T20:16:35.664Z,100.00
2023-05-08T20:19:03.146Z,100.00
2023-05-08T20:21:34.190Z,100.00
2023-05-08T20:24:01.657Z,100.00
2023-05-08T20:26:29.635Z,100.00
2023-05-08T20:28:57.454Z,100.00
2023-05-08T20:31:30.912Z,100.00
2023-05-08T20:34:00.126Z,100.00
2023-05-08T20:36:32.093Z,100.00
2023-05-08T20:38:59.554Z,100.00
2023-05-08T20:41:27.492Z,100.00
2023-05-08T20:43:55.119Z,100.00
2023-05-08T20:46:23.847Z,100.00
2023-05-08T20:48:51.646Z,100.00
2023-05-08T20:51:19.507Z,100.00
2023-05-08T20:53:47.030Z,100.00
2023-05-08T20:56:18.679Z,100.00
2023-05-08T20:58:46.281Z,100.00
2023-05-08T21:01:14.192Z,100.00
2023-05-08T21:03:41.847Z,100.00
2023-05-08T21:06:09.332Z,100.00
2023-05-08T21:08:36.617Z,100.00
2023-05-08T21:11:04.394Z,100.00
2023-05-08T21:13:32.196Z,100.00
2023-05-08T21:15:59.697Z,100.00
2023-05-08T21:18:27.080Z,100.00
2023-05-08T21:20:55.198Z,100.00
2023-05-08T21:23:22.632Z,100.00
2023-05-08T21:25:50.778Z,100.00
2023-05-08T21:28:18.083Z,100.00
2023-05-08T21:30:46.179Z,100.00
2023-05-08T21:33:14.179Z,100.00
2023-05-08T21:35:43.172Z,100.00
2023-05-08T21:38:12.264Z,100.00
2023-05-08T21:40:40.133Z,100.00
2023-05-08T21:43:10.043Z,100.00
2023-05-08T21:45:37.768Z,100.00
2023-05-08T21:48:05.462Z,100.00
2023-05-08T21:50:33.174Z,100.00
2023-05-08T21:53:00.457Z,100.00
2023-05-08T21:55:29.463Z,100.00
2023-05-08T21:57:57.639Z,100.00
2023-05-08T22:00:25.584Z,100.00
2023-05-08T22:02:53.884Z,100.00
2023-05-08T22:05:23.559Z,100.00
2023-05-08T22:07:50.765Z,100.00
2023-05-08T22:10:18.409Z,100.00
2023-05-08T22:12:45.811Z,100.00
2023-05-08T22:15:28.421Z,100.00
2023-05-08T22:17:56.878Z,100.00
2023-05-08T22:20:25.172Z,100.00
2023-05-08T22:22:52.627Z,100.00
2023-05-08T22:25:22.012Z,100.00
2023-05-08T22:27:49.450Z,100.00
2023-05-08T22:30:17.138Z,100.00
2023-05-08T22:32:45.785Z,100.00
2023-05-08T22:35:14.808Z,100.00
2023-05-08T22:37:42.346Z,100.00
2023-05-08T22:40:10.693Z,100.00
2023-05-08T22:42:38.174Z,100.00
2023-05-08T22:45:06.346Z,100.00
2023-05-08T22:47:34.784Z,100.00
2023-05-08T22:50:03.668Z,100.00
2023-05-08T22:52:31.668Z,100.00
2023-05-08T22:54:59.199Z,100.00
2023-05-08T22:57:26.486Z,100.00
2023-05-08T22:59:54.028Z,100.00
2023-05-08T23:02:21.260Z,100.00
2023-05-08T23:04:49.315Z,100.00
2023-05-08T23:07:16.791Z,100.00
2023-05-08T23:09:44.371Z,100.00
2023-05-08T23:12:11.623Z,100.00
2023-05-08T23:14:39.651Z,100.00
2023-05-08T23:17:07.117Z,100.00
2023-05-08T23:19:34.821Z,100.00
2023-05-08T23:22:02.634Z,100.00
2023-05-08T23:24:30.409Z,100.00
2023-05-08T23:26:57.561Z,100.00
2023-05-08T23:29:25.077Z,100.00
2023-05-08T23:31:52.335Z,100.00
2023-05-08T23:34:19.868Z,100.00
2023-05-08T23:36:47.226Z,100.00
2023-05-08T23:39:14.914Z,100.00
2023-05-08T23:41:42.197Z,100.00
2023-05-08T23:44:10.490Z,100.00
2023-05-08T23:46:37.805Z,100.00
2023-05-08T23:49:05.696Z,100.00
2023-05-08T23:51:33.268Z,100.00
2023-05-08T23:54:01.198Z,100.00
2023-05-08T23:56:29.537Z,100.00
2023-05-08T23:58:57.304Z,100.00
